SBPK/PET METAR and TAF weather

Enter ICAO airport designator
Station Type Date Time Source
SBPK METAR 2019/10/23 20:00 UTC NOAA

SBPK 232000Z 09006KT 9999 FEW035 SCT070 24/14 Q1015


Station Type Date Time Source
SBPK Decoded METAR 2019/10/23 20:00 UTC NOAA

Pelotas, Brazil (SBPK) 31-52S 052-21W 13M
Oct 23, 2019 - 04:00 PM EDT / 2019.10.23 2000 UTC
Wind: from the E (090 degrees) at 7 MPH (6 KT):0
Visibility: greater than 7 mile(s):0
Sky conditions: partly cloudy
Temperature: 75 F (24 C)
Dew Point: 57 F (14 C)
Relative Humidity: 53%
Pressure (altimeter): 29.97 in. Hg (1015 hPa)
ob: SBPK 232000Z 09006KT 9999 FEW035 SCT070 24/14 Q1015
cycle: 20

Station Type Date Time Source
SBPK TAF 2019/10/23 18:27 UTC NOAA

TAF TAF SBPK 231530Z 2318/2418 26006KT 9999 SCT030 TN14/2408Z TX24/2417Z
BECMG 2400/2402 CAVOK
RMK PCX

Example: see airport list